createdAt,value
2023-05-22T00:01:06.684Z,18.56
2023-05-22T00:03:33.413Z,18.54
2023-05-22T00:06:00.290Z,18.30
2023-05-22T00:08:29.598Z,18.62
2023-05-22T00:10:56.502Z,18.45
2023-05-22T00:13:22.997Z,18.76
2023-05-22T00:15:49.616Z,18.57
2023-05-22T00:18:16.161Z,18.51
2023-05-22T00:20:42.680Z,18.58
2023-05-22T00:23:10.600Z,18.44
2023-05-22T00:25:37.765Z,18.35
2023-05-22T00:28:05.009Z,18.45
2023-05-22T00:30:31.979Z,18.49
2023-05-22T00:32:58.499Z,18.39
2023-05-22T00:35:25.286Z,18.46
2023-05-22T00:37:51.779Z,18.47
2023-05-22T00:40:18.401Z,18.31
2023-05-22T00:42:44.903Z,18.34
2023-05-22T00:45:12.192Z,18.34
2023-05-22T00:47:39.034Z,18.30
2023-05-22T00:50:06.535Z,18.45
2023-05-22T00:52:35.548Z,18.13
2023-05-22T00:55:03.869Z,18.24
2023-05-22T00:57:33.837Z,18.09
2023-05-22T01:00:02.595Z,18.25
2023-05-22T01:02:33.081Z,18.17
2023-05-22T01:04:59.765Z,18.23
2023-05-22T01:07:26.385Z,18.15
2023-05-22T01:09:52.891Z,18.04
2023-05-22T01:12:52.065Z,18.00
2023-05-22T01:15:27.748Z,18.08
2023-05-22T01:18:19.848Z,17.98
2023-05-22T01:21:22.174Z,18.02
2023-05-22T01:24:04.507Z,17.94
2023-05-22T01:26:55.058Z,17.97
2023-05-22T01:30:09.175Z,17.89
2023-05-22T01:32:38.352Z,17.80
2023-05-22T01:51:13.757Z,16.89
2023-05-22T01:53:47.835Z,17.19
2023-05-22T01:56:17.948Z,17.45
2023-05-22T01:59:01.423Z,17.46
2023-05-22T02:01:32.500Z,17.58
2023-05-22T02:04:00.261Z,17.55
2023-05-22T02:06:32.282Z,17.65
2023-05-22T02:09:01.267Z,17.68
2023-05-22T02:11:30.992Z,17.70
2023-05-22T02:13:57.650Z,17.69
2023-05-22T02:16:24.448Z,17.70
2023-05-22T02:18:51.419Z,17.69
2023-05-22T02:21:17.873Z,17.76
2023-05-22T02:23:44.580Z,17.59
2023-05-22T02:26:11.084Z,17.62
2023-05-22T02:28:37.977Z,17.56
2023-05-22T02:31:04.557Z,17.63
2023-05-22T02:33:31.125Z,17.51
2023-05-22T02:35:57.581Z,17.47
2023-05-22T02:38:24.051Z,17.51
2023-05-22T02:40:50.556Z,17.50
2023-05-22T02:43:17.024Z,17.51
2023-05-22T02:45:43.625Z,17.37
2023-05-22T02:48:10.181Z,17.44
2023-05-22T02:50:36.729Z,17.43
2023-05-22T02:53:03.794Z,17.39
2023-05-22T02:55:30.250Z,17.27
2023-05-22T02:57:56.849Z,17.35
2023-05-22T03:00:23.396Z,17.31
2023-05-22T03:02:50.194Z,17.18
2023-05-22T03:05:17.886Z,17.22
2023-05-22T03:07:47.428Z,17.28
2023-05-22T03:10:14.949Z,17.23
2023-05-22T03:12:41.480Z,17.23
2023-05-22T03:15:08.661Z,17.29
2023-05-22T03:17:35.288Z,17.19
2023-05-22T03:20:02.010Z,17.19
2023-05-22T03:22:28.386Z,17.27
2023-05-22T03:24:54.840Z,17.13
2023-05-22T03:27:21.297Z,17.16
2023-05-22T03:29:47.799Z,17.18
2023-05-22T03:32:14.267Z,17.17
2023-05-22T03:34:41.221Z,17.23
2023-05-22T03:37:09.056Z,17.12
2023-05-22T03:39:36.105Z,17.18
2023-05-22T03:42:02.564Z,17.03
2023-05-22T03:44:29.061Z,17.07
2023-05-22T03:46:55.669Z,17.06
2023-05-22T03:49:22.158Z,17.10
2023-05-22T03:51:48.635Z,17.08
2023-05-22T03:54:15.080Z,17.06
2023-05-22T03:56:43.273Z,16.99
2023-05-22T03:59:09.957Z,16.92
2023-05-22T04:01:39.396Z,17.06
2023-05-22T04:04:06.149Z,17.03
2023-05-22T04:06:43.081Z,17.07
2023-05-22T04:09:13.868Z,16.98
2023-05-22T04:11:40.506Z,17.02
2023-05-22T04:14:07.044Z,16.90
2023-05-22T04:16:33.883Z,16.95
2023-05-22T04:19:03.870Z,17.08
2023-05-22T04:21:34.177Z,17.08
2023-05-22T04:24:07.274Z,17.08
2023-05-22T04:26:34.096Z,17.02
2023-05-22T04:29:01.235Z,17.08
2023-05-22T04:31:28.437Z,17.02
2023-05-22T04:33:56.010Z,17.20
2023-05-22T04:36:22.573Z,17.13
2023-05-22T04:38:52.093Z,17.26
2023-05-22T04:41:19.650Z,17.08
2023-05-22T04:43:48.959Z,17.21
2023-05-22T04:46:16.143Z,17.31
2023-05-22T04:48:42.612Z,17.43
2023-05-22T04:51:09.925Z,17.47
2023-05-22T04:53:38.617Z,17.48
2023-05-22T04:56:06.117Z,17.43
2023-05-22T04:58:32.671Z,17.25
2023-05-22T05:00:59.289Z,17.29
2023-05-22T05:03:27.426Z,17.34
2023-05-22T05:05:54.176Z,17.20
2023-05-22T05:08:20.568Z,17.48
2023-05-22T05:10:47.249Z,17.19
2023-05-22T05:13:13.803Z,17.24
2023-05-22T05:15:40.498Z,17.32
2023-05-22T05:18:07.023Z,17.31
2023-05-22T05:20:33.593Z,17.26
2023-05-22T05:23:00.065Z,17.29
2023-05-22T05:25:26.616Z,17.42
2023-05-22T05:27:53.071Z,17.56
2023-05-22T05:30:20.549Z,17.56
2023-05-22T05:32:47.436Z,17.63
2023-05-22T05:35:14.146Z,17.61
2023-05-22T05:37:41.698Z,17.79
2023-05-22T05:40:08.961Z,17.69
2023-05-22T05:42:36.011Z,17.73
2023-05-22T05:45:02.468Z,17.87
2023-05-22T05:47:29.760Z,17.97
2023-05-22T05:49:56.358Z,17.88
2023-05-22T05:52:22.919Z,17.84
2023-05-22T05:54:49.401Z,17.85
2023-05-22T05:57:16.634Z,17.89
2023-05-22T05:59:43.159Z,18.23
2023-05-22T06:02:09.845Z,17.80
2023-05-22T06:04:36.821Z,18.34
2023-05-22T06:07:03.422Z,18.19
2023-05-22T06:09:30.037Z,18.07
2023-05-22T06:11:56.559Z,17.97
2023-05-22T06:14:23.684Z,18.10
2023-05-22T06:16:50.207Z,17.95
2023-05-22T06:19:16.926Z,18.24
2023-05-22T06:21:43.494Z,18.19
2023-05-22T06:24:10.050Z,18.56
2023-05-22T06:26:36.872Z,18.52
2023-05-22T06:29:03.423Z,18.55
2023-05-22T06:31:30.108Z,18.37
2023-05-22T06:33:59.789Z,18.51
2023-05-22T06:36:26.694Z,18.74
2023-05-22T06:38:54.434Z,18.61
2023-05-22T06:41:21.335Z,18.46
2023-05-22T06:43:49.543Z,18.53
2023-05-22T06:46:16.201Z,18.66
2023-05-22T06:48:42.760Z,18.78
2023-05-22T06:51:11.725Z,18.88
2023-05-22T06:53:38.883Z,19.21
2023-05-22T06:56:06.149Z,19.32
2023-05-22T06:58:32.599Z,19.25
2023-05-22T07:00:59.162Z,19.39
2023-05-22T07:03:27.254Z,19.36
2023-05-22T07:05:56.848Z,19.71
2023-05-22T07:08:23.743Z,19.41
2023-05-22T07:10:51.674Z,19.45
2023-05-22T07:13:18.145Z,19.38
2023-05-22T07:15:46.390Z,19.23
2023-05-22T07:18:13.088Z,19.33
2023-05-22T07:20:39.640Z,19.35
2023-05-22T07:23:08.988Z,19.28
2023-05-22T07:25:36.180Z,19.42
2023-05-22T07:28:08.642Z,19.74
2023-05-22T07:30:38.690Z,20.04
2023-05-22T07:33:05.931Z,20.18
2023-05-22T07:35:32.578Z,20.15
2023-05-22T07:37:59.033Z,20.78
2023-05-22T07:40:26.498Z,21.01
2023-05-22T07:42:53.220Z,21.34
2023-05-22T07:45:20.205Z,21.75
2023-05-22T07:47:46.929Z,21.91
2023-05-22T07:50:16.167Z,21.98
2023-05-22T07:52:42.697Z,22.00
2023-05-22T07:55:09.573Z,22.26
2023-05-22T07:57:36.275Z,22.27
2023-05-22T08:00:10.197Z,21.52
2023-05-22T08:02:36.814Z,21.67
2023-05-22T08:05:04.660Z,21.39
2023-05-22T08:07:32.967Z,21.51
2023-05-22T08:10:02.260Z,21.35
2023-05-22T08:12:28.717Z,21.63
2023-05-22T08:14:55.223Z,21.86
2023-05-22T08:17:21.735Z,21.60
2023-05-22T08:19:48.306Z,21.82
2023-05-22T08:22:14.786Z,21.50
2023-05-22T08:24:41.267Z,21.79
2023-05-22T08:27:07.719Z,21.66
2023-05-22T08:29:34.364Z,22.02
2023-05-22T08:32:00.861Z,21.92
2023-05-22T08:34:28.412Z,22.21
2023-05-22T08:36:54.948Z,22.46
2023-05-22T08:39:21.453Z,22.15
2023-05-22T08:41:49.117Z,22.34
2023-05-22T08:44:16.316Z,22.31
2023-05-22T08:46:44.269Z,22.57
2023-05-22T08:49:11.248Z,22.66
2023-05-22T08:51:42.543Z,22.67
2023-05-22T08:54:09.892Z,22.57
2023-05-22T08:56:39.866Z,22.40
2023-05-22T08:59:12.553Z,22.52
2023-05-22T09:01:39.141Z,22.55
2023-05-22T09:04:09.982Z,22.61
2023-05-22T09:06:38.606Z,22.62
2023-05-22T09:09:05.210Z,22.87
2023-05-22T09:11:31.710Z,23.24
2023-05-22T09:14:08.584Z,23.14
2023-05-22T09:16:51.804Z,23.42
2023-05-22T09:19:18.365Z,23.20
2023-05-22T09:21:44.929Z,23.19
2023-05-22T09:24:11.695Z,22.74
2023-05-22T09:26:39.367Z,23.01
2023-05-22T09:29:07.406Z,23.02
2023-05-22T09:31:41.733Z,23.00
2023-05-22T09:34:10.374Z,22.82
2023-05-22T09:36:37.033Z,22.88
2023-05-22T09:39:04.541Z,22.92
2023-05-22T09:41:35.234Z,23.01
2023-05-22T09:44:02.225Z,23.19
2023-05-22T09:46:29.687Z,23.46
2023-05-22T09:48:56.501Z,23.31
2023-05-22T09:51:26.553Z,23.38
2023-05-22T09:54:01.977Z,23.53
2023-05-22T09:56:38.594Z,23.36
2023-05-22T09:59:09.299Z,23.20
2023-05-22T10:01:42.672Z,23.13
2023-05-22T10:04:13.756Z,23.22
2023-05-22T10:06:42.178Z,23.19
2023-05-22T10:09:18.826Z,23.14
2023-05-22T10:11:47.358Z,23.11
2023-05-22T10:14:15.044Z,22.90
2023-05-22T10:16:42.555Z,23.12
2023-05-22T10:19:09.775Z,23.23
2023-05-22T10:21:37.138Z,23.23
2023-05-22T10:24:04.981Z,23.34
2023-05-22T10:26:31.670Z,23.63
2023-05-22T10:29:07.504Z,23.60
2023-05-22T10:31:46.036Z,23.63
2023-05-22T10:34:21.520Z,24.00
2023-05-22T10:37:16.940Z,23.55
2023-05-22T10:40:07.542Z,23.72
2023-05-22T10:42:34.678Z,23.71
2023-05-22T10:45:01.698Z,23.70
2023-05-22T10:47:28.225Z,23.65
2023-05-22T10:50:08.885Z,23.62
2023-05-22T10:52:36.659Z,23.58
2023-05-22T10:55:10.536Z,23.54
2023-05-22T10:57:39.311Z,23.50
2023-05-22T11:00:09.994Z,23.65
2023-05-22T11:02:44.596Z,23.62
2023-05-22T11:05:17.101Z,23.70
2023-05-22T11:07:43.576Z,23.61
2023-05-22T11:10:10.405Z,23.87
2023-05-22T11:12:37.413Z,24.21
2023-05-22T11:15:08.961Z,24.22
2023-05-22T11:17:45.090Z,24.03
2023-05-22T11:20:25.901Z,24.04
2023-05-22T11:23:00.541Z,24.05
2023-05-22T11:25:28.548Z,23.98
2023-05-22T11:27:56.146Z,24.07
2023-05-22T11:30:27.934Z,24.31
2023-05-22T11:32:54.607Z,23.98
2023-05-22T11:35:22.373Z,24.03
2023-05-22T11:37:50.952Z,24.44
2023-05-22T11:40:21.181Z,24.22
2023-05-22T11:42:48.134Z,24.36
2023-05-22T11:45:14.940Z,24.41
2023-05-22T11:47:42.103Z,24.55
2023-05-22T11:50:09.916Z,24.50
2023-05-22T11:52:39.281Z,24.68
2023-05-22T11:55:11.102Z,24.76
2023-05-22T11:57:38.290Z,24.99
2023-05-22T12:00:06.616Z,24.76
2023-05-22T12:02:33.383Z,24.83
2023-05-22T12:05:00.462Z,24.74
2023-05-22T12:07:27.741Z,24.99
2023-05-22T12:09:57.538Z,24.85
2023-05-22T12:12:24.083Z,24.99
2023-05-22T12:14:50.593Z,25.24
2023-05-22T12:17:18.044Z,24.99
2023-05-22T12:19:44.682Z,24.91
2023-05-22T12:22:12.139Z,25.21
2023-05-22T12:24:46.055Z,24.99
2023-05-22T12:27:13.808Z,25.10
2023-05-22T12:29:41.612Z,25.32
2023-05-22T12:32:11.089Z,25.30
2023-05-22T12:34:47.743Z,24.89
2023-05-22T12:37:22.810Z,25.03
2023-05-22T12:39:57.109Z,25.23
2023-05-22T12:42:24.691Z,25.22
2023-05-22T12:44:53.632Z,25.26
2023-05-22T12:47:20.708Z,25.37
2023-05-22T12:49:47.218Z,25.53
2023-05-22T12:52:13.877Z,25.23
2023-05-22T12:54:40.792Z,25.08
2023-05-22T12:57:07.457Z,25.10
2023-05-22T12:59:33.929Z,25.25
2023-05-22T13:02:02.335Z,25.33
2023-05-22T13:04:29.602Z,25.23
2023-05-22T13:06:56.289Z,25.56
2023-05-22T13:09:22.968Z,25.17
2023-05-22T13:11:49.449Z,25.42
2023-05-22T13:14:15.985Z,25.68
2023-05-22T13:16:42.799Z,25.58
2023-05-22T13:19:09.560Z,25.33
2023-05-22T13:21:36.730Z,25.55
2023-05-22T13:24:04.382Z,25.42
2023-05-22T13:26:31.142Z,25.67
2023-05-22T13:28:57.604Z,26.14
2023-05-22T13:31:24.038Z,26.02
2023-05-22T13:33:50.728Z,25.48
2023-05-22T13:36:18.072Z,25.54
2023-05-22T13:38:44.553Z,25.47
2023-05-22T13:41:11.180Z,26.08
2023-05-22T13:43:37.607Z,25.77
2023-05-22T13:46:04.532Z,25.66
2023-05-22T13:48:31.191Z,25.86
2023-05-22T13:50:57.735Z,25.61
2023-05-22T13:53:24.257Z,26.10
2023-05-22T13:55:51.036Z,25.75
2023-05-22T13:58:17.686Z,25.77
2023-05-22T14:00:44.196Z,25.51
2023-05-22T14:03:11.777Z,25.52
2023-05-22T14:05:38.602Z,25.76
2023-05-22T14:08:05.457Z,25.91
2023-05-22T14:10:32.152Z,25.78
2023-05-22T14:12:58.598Z,25.78
2023-05-22T14:15:25.118Z,25.97
2023-05-22T14:17:51.698Z,25.84
2023-05-22T14:20:18.350Z,25.70
2023-05-22T14:22:56.446Z,25.53
2023-05-22T14:25:24.786Z,25.95
2023-05-22T14:27:51.250Z,25.54
2023-05-22T14:30:17.887Z,25.08
2023-05-22T14:32:44.420Z,24.89
2023-05-22T14:35:11.164Z,24.51
2023-05-22T14:37:37.690Z,24.75
2023-05-22T14:40:04.486Z,24.86
2023-05-22T14:42:31.036Z,24.78
2023-05-22T14:44:58.248Z,24.76
2023-05-22T14:47:24.723Z,25.07
2023-05-22T14:49:51.705Z,25.19
2023-05-22T14:52:19.321Z,25.55
2023-05-22T14:54:45.868Z,25.63
2023-05-22T14:57:12.294Z,25.91
2023-05-22T14:59:40.673Z,25.72
2023-05-22T15:02:07.370Z,25.77
2023-05-22T15:04:33.982Z,25.66
2023-05-22T15:07:00.453Z,26.04
2023-05-22T15:09:27.117Z,25.67
2023-05-22T15:11:53.951Z,25.72
2023-05-22T15:14:50.055Z,25.38
2023-05-22T15:17:16.524Z,25.44
2023-05-22T15:19:45.299Z,25.45
2023-05-22T15:22:19.628Z,25.38
2023-05-22T15:25:03.706Z,25.85
2023-05-22T15:27:30.208Z,25.99
2023-05-22T15:29:56.746Z,25.77
2023-05-22T15:32:23.880Z,25.57
2023-05-22T15:34:50.454Z,25.54
2023-05-22T15:37:16.809Z,25.72
2023-05-22T15:39:43.269Z,25.40
2023-05-22T15:42:09.673Z,25.20
2023-05-22T15:44:36.362Z,25.44
2023-05-22T15:47:02.829Z,25.51
2023-05-22T15:49:31.228Z,25.29
2023-05-22T15:51:58.210Z,24.86
2023-05-22T15:54:24.764Z,25.20
2023-05-22T15:56:51.468Z,25.08
2023-05-22T15:59:19.726Z,25.03
2023-05-22T16:01:49.367Z,25.04
2023-05-22T16:04:16.014Z,24.87
2023-05-22T16:06:42.593Z,24.81
2023-05-22T16:09:09.962Z,24.83
2023-05-22T16:11:37.974Z,24.91
2023-05-22T16:14:04.904Z,25.14
2023-05-22T16:16:31.610Z,25.36
2023-05-22T16:18:58.333Z,24.91
2023-05-22T16:21:24.898Z,25.04
2023-05-22T16:23:51.261Z,25.05
2023-05-22T16:26:17.736Z,24.57
2023-05-22T16:28:44.122Z,24.27
2023-05-22T16:31:10.766Z,24.16
2023-05-22T16:33:37.627Z,24.12
2023-05-22T16:36:04.628Z,24.28
2023-05-22T16:38:31.208Z,24.01
2023-05-22T16:40:58.083Z,23.94
2023-05-22T16:43:24.741Z,24.13
2023-05-22T16:45:51.446Z,23.94
2023-05-22T16:48:18.493Z,23.76
2023-05-22T16:50:46.714Z,23.51
2023-05-22T16:53:13.755Z,23.90
2023-05-22T16:55:40.621Z,23.81
2023-05-22T16:58:07.412Z,23.69
2023-05-22T17:00:34.231Z,23.74
2023-05-22T17:03:00.893Z,23.61
2023-05-22T17:05:27.498Z,23.35
2023-05-22T17:07:53.972Z,23.51
2023-05-22T17:10:20.412Z,23.56
2023-05-22T17:12:46.973Z,23.20
2023-05-22T17:15:13.494Z,23.13
2023-05-22T17:17:40.000Z,23.21
2023-05-22T17:20:07.280Z,23.16
2023-05-22T17:22:33.974Z,22.96
2023-05-22T17:25:00.891Z,23.00
2023-05-22T17:27:35.359Z,22.92
2023-05-22T17:30:02.545Z,23.20
2023-05-22T17:32:29.180Z,23.13
2023-05-22T17:34:55.784Z,23.00
2023-05-22T17:37:22.231Z,22.81
2023-05-22T17:39:48.711Z,22.70
2023-05-22T17:42:15.248Z,22.51
2023-05-22T17:44:41.765Z,22.59
2023-05-22T17:47:08.233Z,22.53
2023-05-22T17:49:34.704Z,22.42
2023-05-22T17:52:01.213Z,22.74
2023-05-22T17:54:33.636Z,22.60
2023-05-22T17:57:00.714Z,22.67
2023-05-22T17:59:27.183Z,22.67
2023-05-22T18:01:53.778Z,22.31
2023-05-22T18:04:20.189Z,22.34
2023-05-22T18:06:46.636Z,22.06
2023-05-22T18:09:13.077Z,22.38
2023-05-22T18:11:39.805Z,22.36
2023-05-22T18:14:07.855Z,22.05
2023-05-22T18:16:34.511Z,21.85
2023-05-22T18:19:01.050Z,21.88
2023-05-22T18:21:28.596Z,21.64
2023-05-22T18:23:56.035Z,21.60
2023-05-22T18:26:22.596Z,21.67
2023-05-22T18:28:48.972Z,21.62
2023-05-22T18:31:15.680Z,21.49
2023-05-22T18:33:44.745Z,21.56
2023-05-22T18:36:11.604Z,21.62
2023-05-22T18:38:38.051Z,21.74
2023-05-22T18:41:06.243Z,21.73
2023-05-22T18:43:32.828Z,21.64
2023-05-22T18:45:59.469Z,21.18
2023-05-22T18:48:27.234Z,21.07
2023-05-22T18:50:55.704Z,20.63
2023-05-22T18:53:22.313Z,20.83
2023-05-22T18:55:48.837Z,20.94
2023-05-22T18:58:15.544Z,20.60
2023-05-22T19:00:45.057Z,20.78
2023-05-22T19:03:12.287Z,20.78
2023-05-22T19:05:38.900Z,20.72
2023-05-22T19:08:06.179Z,20.46
2023-05-22T19:10:33.146Z,20.34
2023-05-22T19:13:00.025Z,20.50
2023-05-22T19:15:26.632Z,20.44
2023-05-22T19:17:53.114Z,20.33
2023-05-22T19:20:19.912Z,19.93
2023-05-22T19:22:46.454Z,20.18
2023-05-22T19:25:13.179Z,20.35
2023-05-22T19:27:39.719Z,20.10
2023-05-22T19:30:07.290Z,20.00
2023-05-22T19:32:33.981Z,19.90
2023-05-22T19:35:00.828Z,20.12
2023-05-22T19:37:27.478Z,20.12
2023-05-22T19:39:54.285Z,20.37
2023-05-22T19:42:20.969Z,19.83
2023-05-22T19:44:47.921Z,19.78
2023-05-22T19:47:14.553Z,20.06
2023-05-22T19:49:41.183Z,19.98
2023-05-22T19:52:07.767Z,20.02
2023-05-22T19:54:35.926Z,19.91
2023-05-22T19:57:03.300Z,19.82
2023-05-22T19:59:30.042Z,19.94
2023-05-22T20:01:56.700Z,19.99
2023-05-22T20:04:23.776Z,19.77
2023-05-22T20:06:50.943Z,19.68
2023-05-22T20:09:20.252Z,19.63
2023-05-22T20:11:46.896Z,19.40
2023-05-22T20:14:13.755Z,19.50
2023-05-22T20:16:43.432Z,19.62
2023-05-22T20:19:15.070Z,19.48
2023-05-22T20:21:44.887Z,19.36
2023-05-22T20:24:21.107Z,19.49
2023-05-22T20:26:48.069Z,19.59
2023-05-22T20:29:15.017Z,19.43
2023-05-22T20:31:42.255Z,19.45
2023-05-22T20:34:09.648Z,19.42
2023-05-22T20:36:37.285Z,19.46
2023-05-22T20:39:04.229Z,19.55
2023-05-22T20:41:30.824Z,19.45
2023-05-22T20:43:59.285Z,19.38
2023-05-22T20:46:26.542Z,19.29
2023-05-22T20:48:53.270Z,19.25
2023-05-22T20:51:20.741Z,19.47
2023-05-22T20:53:48.658Z,19.17
2023-05-22T20:56:15.434Z,19.15
2023-05-22T20:58:42.567Z,19.18
2023-05-22T21:01:09.287Z,19.05
2023-05-22T21:03:35.993Z,19.24
2023-05-22T21:06:02.775Z,18.98
2023-05-22T21:08:29.189Z,19.17
2023-05-22T21:10:56.008Z,18.86
2023-05-22T21:13:22.524Z,19.15
2023-05-22T21:15:49.056Z,18.96
2023-05-22T21:18:15.878Z,18.88
2023-05-22T21:20:42.664Z,19.02
2023-05-22T21:23:09.250Z,19.08
2023-05-22T21:25:36.416Z,19.04
2023-05-22T21:28:02.967Z,19.14
2023-05-22T21:30:29.484Z,19.07
2023-05-22T21:32:55.982Z,19.07
2023-05-22T21:35:22.569Z,19.17
2023-05-22T21:37:49.223Z,19.18
2023-05-22T21:40:16.185Z,19.14
2023-05-22T21:42:46.953Z,19.13
2023-05-22T21:45:14.016Z,19.17
2023-05-22T21:47:40.631Z,19.17
2023-05-22T21:50:07.439Z,19.18
2023-05-22T21:52:33.821Z,19.15
2023-05-22T21:55:02.361Z,18.96
2023-05-22T21:57:28.933Z,19.08
2023-05-22T21:59:55.449Z,19.04
2023-05-22T22:02:22.026Z,18.95
2023-05-22T22:04:48.562Z,18.95
2023-05-22T22:07:15.063Z,19.09
2023-05-22T22:09:41.585Z,18.77
2023-05-22T22:12:08.312Z,18.91
2023-05-22T22:14:34.868Z,19.01
2023-05-22T22:17:01.331Z,18.71
2023-05-22T22:19:28.885Z,18.76
2023-05-22T22:21:55.532Z,18.70
2023-05-22T22:24:22.160Z,18.81
2023-05-22T22:26:49.308Z,18.68
2023-05-22T22:29:15.844Z,18.69
2023-05-22T22:31:42.340Z,18.76
2023-05-22T22:34:09.191Z,18.81
2023-05-22T22:36:35.636Z,18.65
2023-05-22T22:39:02.336Z,18.75
2023-05-22T22:41:28.705Z,18.78
2023-05-22T22:43:55.196Z,18.59
2023-05-22T22:46:22.073Z,18.58
2023-05-22T22:48:48.691Z,18.57
2023-05-22T22:51:15.196Z,18.64
2023-05-22T22:53:41.645Z,18.65
2023-05-22T22:56:08.229Z,18.65
2023-05-22T22:58:34.694Z,18.69
2023-05-22T23:01:01.621Z,18.63
2023-05-22T23:03:28.134Z,18.65
2023-05-22T23:05:54.712Z,18.70
2023-05-22T23:08:21.180Z,18.71
2023-05-22T23:10:47.662Z,18.65
2023-05-22T23:13:14.125Z,18.52
2023-05-22T23:15:40.941Z,18.58
2023-05-22T23:18:07.716Z,18.60
2023-05-22T23:20:34.401Z,18.67
2023-05-22T23:23:00.848Z,18.57
2023-05-22T23:25:27.466Z,18.59
2023-05-22T23:27:54.004Z,18.59
2023-05-22T23:30:20.501Z,18.58
2023-05-22T23:32:46.973Z,18.56
2023-05-22T23:35:13.480Z,18.55
2023-05-22T23:37:39.999Z,18.56
2023-05-22T23:40:07.723Z,18.50
2023-05-22T23:42:35.619Z,18.48
2023-05-22T23:45:05.593Z,18.40
2023-05-22T23:47:32.102Z,18.39
2023-05-22T23:49:59.711Z,18.43
2023-05-22T23:52:27.179Z,18.40
2023-05-22T23:54:53.683Z,18.28
2023-05-22T23:57:20.179Z,18.10
2023-05-22T23:59:46.770Z,18.19
